Trout Creek, Utah
Current Conditions -  °F | °C
As of 10:15 PM on Saturday 25 Oct 2014 (Local Time) from KENV Reporting Station
Clear Clear  
Wind Chill: 64°   Ceiling: Unl
Heat Index: 64°   Visibility: 10mi
Dew Point: 32°   Wind: 20mph
Humidity: 30%   Direction: 210°SSW
Pressure: 29.86"   Gusts: NA
Location:  40.2503°N, 113.457°W
Report Text: KENV 260415Z AUTO 21017KT 10SM CLR 18/00 A2986 RMK AO1
Loading
Personal Weather Stations






























Interactive Weather Map New forecast layout! Learn more

10-Day Weather Forecast

Advertisements
Track Severe Weather on mobile